createdAt,value
2022-11-30T00:00:22.566Z,39.22
2022-11-30T00:02:56.014Z,42.35
2022-11-30T00:05:22.999Z,39.22
2022-11-30T00:07:50.154Z,39.05
2022-11-30T00:10:17.193Z,40.83
2022-11-30T00:12:43.603Z,43.55
2022-11-30T00:15:13.930Z,39.60
2022-11-30T00:17:41.207Z,37.45
2022-11-30T00:20:09.124Z,36.30
2022-11-30T00:22:35.816Z,40.65
2022-11-30T00:25:04.665Z,37.20
2022-11-30T00:27:32.426Z,38.20
2022-11-30T00:29:59.135Z,38.60
2022-11-30T00:32:26.621Z,37.88
2022-11-30T00:34:53.074Z,36.65
2022-11-30T00:37:19.966Z,38.45
2022-11-30T00:39:46.389Z,38.72
2022-11-30T00:42:13.405Z,37.55
2022-11-30T00:44:39.918Z,40.45
2022-11-30T00:47:06.348Z,40.92
2022-11-30T00:49:33.838Z,39.03
2022-11-30T00:52:01.139Z,38.65
2022-11-30T00:54:27.710Z,38.30
2022-11-30T00:56:54.361Z,39.28
2022-11-30T00:59:20.816Z,45.03
2022-11-30T01:01:47.474Z,39.95
2022-11-30T01:04:13.896Z,41.97
2022-11-30T01:06:40.404Z,45.05
2022-11-30T01:09:06.877Z,38.92
2022-11-30T01:11:33.343Z,41.60
2022-11-30T01:14:00.517Z,39.67
2022-11-30T01:16:30.449Z,40.60
2022-11-30T01:18:57.110Z,37.47
2022-11-30T01:21:26.383Z,36.40
2022-11-30T01:23:53.581Z,36.83
2022-11-30T01:26:20.598Z,33.20
2022-11-30T01:28:52.696Z,32.00
2022-11-30T01:31:20.691Z,30.73
2022-11-30T01:33:51.783Z,28.75
2022-11-30T01:36:21.582Z,31.52
2022-11-30T01:38:53.481Z,31.35
2022-11-30T01:41:23.715Z,30.20
2022-11-30T01:44:20.067Z,29.15
2022-11-30T01:46:54.553Z,32.13
2022-11-30T01:49:28.584Z,31.75
2022-11-30T01:52:20.592Z,31.88
2022-11-30T01:54:53.894Z,30.08
2022-11-30T01:57:34.136Z,33.05
2022-11-30T02:00:02.589Z,32.70
2022-11-30T02:02:47.590Z,34.65
2022-11-30T02:05:16.074Z,33.45
2022-11-30T02:07:42.889Z,31.50
2022-11-30T02:10:25.461Z,32.45
2022-11-30T02:13:18.146Z,31.05
2022-11-30T02:15:55.106Z,30.17
2022-11-30T02:18:31.583Z,29.30
2022-11-30T02:21:10.656Z,29.63
2022-11-30T02:23:59.971Z,30.42
2022-11-30T02:26:53.679Z,27.63
2022-11-30T02:29:25.013Z,26.48
2022-11-30T02:32:04.960Z,28.00
2022-11-30T02:34:34.896Z,27.63
2022-11-30T02:37:03.140Z,26.23
2022-11-30T02:39:29.585Z,26.25
2022-11-30T02:41:56.169Z,26.25
2022-11-30T02:44:23.952Z,25.77
2022-11-30T02:46:54.397Z,25.90
2022-11-30T02:49:34.929Z,24.85
2022-11-30T02:52:02.475Z,25.02
2022-11-30T02:54:28.952Z,25.20
2022-11-30T02:56:55.327Z,26.38
2022-11-30T02:59:24.863Z,26.45
2022-11-30T03:01:51.568Z,25.60
2022-11-30T03:04:18.023Z,24.10
2022-11-30T03:06:44.426Z,24.77
2022-11-30T03:09:10.789Z,25.80
2022-11-30T03:11:37.233Z,25.58
2022-11-30T03:14:03.759Z,25.58
2022-11-30T03:16:30.235Z,25.52
2022-11-30T03:18:58.013Z,27.13
2022-11-30T03:21:24.888Z,26.52
2022-11-30T03:23:51.460Z,24.65
2022-11-30T03:26:17.861Z,26.80
2022-11-30T03:28:44.251Z,26.70
2022-11-30T03:31:12.705Z,26.13
2022-11-30T03:33:42.418Z,27.02
2022-11-30T03:36:10.966Z,26.15
2022-11-30T03:38:37.755Z,25.10
2022-11-30T03:41:06.887Z,25.20
2022-11-30T03:43:33.281Z,24.20
2022-11-30T03:45:59.788Z,26.20
2022-11-30T03:48:26.603Z,24.08
2022-11-30T03:50:53.063Z,25.67
2022-11-30T03:53:21.586Z,25.42
2022-11-30T03:55:56.611Z,24.63
2022-11-30T03:58:23.947Z,24.30
2022-11-30T04:00:51.192Z,24.83
2022-11-30T04:03:17.864Z,24.73
2022-11-30T04:05:44.275Z,23.30
2022-11-30T04:08:10.669Z,25.50
2022-11-30T04:10:37.063Z,23.58
2022-11-30T04:13:03.581Z,26.25
2022-11-30T04:15:29.981Z,25.02
2022-11-30T04:17:56.363Z,24.40
2022-11-30T04:20:22.762Z,26.27
2022-11-30T04:22:49.126Z,26.73
2022-11-30T04:25:15.573Z,26.60
2022-11-30T04:27:45.608Z,25.88
2022-11-30T04:30:12.602Z,25.77
2022-11-30T04:32:39.034Z,27.17
2022-11-30T04:35:05.918Z,26.63
2022-11-30T04:37:32.279Z,27.58
2022-11-30T04:39:58.985Z,28.50
2022-11-30T04:42:25.361Z,27.35
2022-11-30T04:44:51.741Z,27.63
2022-11-30T04:47:18.162Z,26.55
2022-11-30T04:49:44.572Z,24.65
2022-11-30T04:52:11.003Z,27.90
2022-11-30T04:54:37.382Z,26.73
2022-11-30T04:57:03.815Z,27.13
2022-11-30T04:59:30.200Z,26.75
2022-11-30T05:01:56.966Z,26.27
2022-11-30T05:04:23.514Z,25.45
2022-11-30T05:06:50.000Z,27.67
2022-11-30T05:09:16.442Z,26.63
2022-11-30T05:11:43.389Z,28.95
2022-11-30T05:14:09.816Z,28.63
2022-11-30T05:16:36.234Z,27.42
2022-11-30T05:19:02.670Z,27.65
2022-11-30T05:21:29.055Z,26.80
2022-11-30T05:23:55.456Z,25.08
2022-11-30T05:26:21.904Z,25.95
2022-11-30T05:28:48.316Z,26.13
2022-11-30T05:31:14.713Z,27.02
2022-11-30T05:33:41.136Z,25.15
2022-11-30T05:36:10.959Z,25.83
2022-11-30T05:38:37.830Z,25.92
2022-11-30T05:41:04.329Z,24.70
2022-11-30T05:43:30.704Z,25.00
2022-11-30T05:46:01.240Z,24.98
2022-11-30T05:48:27.930Z,26.83
2022-11-30T05:50:54.416Z,25.23
2022-11-30T05:53:21.000Z,24.90
2022-11-30T05:55:47.391Z,25.42
2022-11-30T05:58:13.848Z,25.45
2022-11-30T06:00:40.304Z,26.15
2022-11-30T06:03:06.756Z,27.75
2022-11-30T06:05:34.182Z,27.75
2022-11-30T06:08:00.853Z,27.58
2022-11-30T06:10:27.321Z,29.88
2022-11-30T06:12:53.742Z,27.25
2022-11-30T06:15:20.352Z,28.20
2022-11-30T06:17:46.744Z,29.33
2022-11-30T06:20:13.906Z,29.13
2022-11-30T06:22:40.561Z,27.77
2022-11-30T06:25:07.183Z,28.23
2022-11-30T06:27:33.631Z,28.52
2022-11-30T06:30:00.073Z,28.05
2022-11-30T06:32:26.422Z,29.52
2022-11-30T06:34:52.975Z,27.35
2022-11-30T06:37:19.347Z,26.95
2022-11-30T06:42:32.396Z,27.58
2022-11-30T06:44:58.834Z,27.70
2022-11-30T06:47:25.516Z,28.20
2022-11-30T06:49:51.953Z,27.30
2022-11-30T06:52:18.389Z,27.73
2022-11-30T06:54:46.219Z,27.13
2022-11-30T06:57:12.799Z,27.08
2022-11-30T06:59:43.362Z,27.25
2022-11-30T07:02:17.504Z,27.13
2022-11-30T07:04:45.239Z,27.73
2022-11-30T07:07:11.763Z,26.70
2022-11-30T07:09:38.209Z,27.45
2022-11-30T07:12:05.014Z,25.80
2022-11-30T07:14:31.471Z,27.48
2022-11-30T07:16:58.118Z,26.98
2022-11-30T07:19:24.778Z,27.63
2022-11-30T07:21:51.267Z,28.63
2022-11-30T07:24:36.440Z,27.73
2022-11-30T07:27:03.988Z,29.23
2022-11-30T07:29:30.424Z,28.50
2022-11-30T07:31:56.953Z,27.95
2022-11-30T07:34:23.488Z,29.10
2022-11-30T07:36:49.907Z,26.65
2022-11-30T07:39:16.295Z,27.70
2022-11-30T07:41:42.727Z,28.42
2022-11-30T07:44:10.181Z,28.23
2022-11-30T07:46:37.859Z,28.48
2022-11-30T07:49:09.609Z,27.23
2022-11-30T07:51:37.113Z,27.33
2022-11-30T07:54:03.662Z,26.60
2022-11-30T07:56:30.086Z,27.02
2022-11-30T07:58:59.908Z,27.40
2022-11-30T08:01:31.871Z,28.00
2022-11-30T08:03:58.928Z,28.45
2022-11-30T08:06:27.953Z,28.63
2022-11-30T08:08:57.704Z,27.65
2022-11-30T08:11:30.545Z,28.30
2022-11-30T08:13:57.281Z,27.38
2022-11-30T08:16:26.314Z,28.15
2022-11-30T08:18:55.154Z,27.30
2022-11-30T08:21:22.462Z,27.52
2022-11-30T08:23:51.378Z,28.55
2022-11-30T08:26:23.754Z,27.88
2022-11-30T08:28:51.245Z,26.48
2022-11-30T08:31:20.636Z,26.15
2022-11-30T08:33:47.333Z,27.73
2022-11-30T08:36:19.348Z,26.60
2022-11-30T08:38:47.023Z,26.92
2022-11-30T08:41:16.644Z,27.38
2022-11-30T08:43:43.324Z,27.83
2022-11-30T08:46:42.442Z,26.67
2022-11-30T08:49:19.854Z,29.00
2022-11-30T08:52:16.018Z,27.35
2022-11-30T08:54:31.576Z,27.23
2022-11-30T08:56:59.130Z,26.98
2022-11-30T08:59:25.666Z,28.70
2022-11-30T09:01:52.091Z,28.20
2022-11-30T09:04:18.465Z,25.70
2022-11-30T09:06:44.939Z,26.88
2022-11-30T09:09:11.332Z,27.70
2022-11-30T09:11:37.710Z,27.40
2022-11-30T09:14:04.767Z,30.40
2022-11-30T09:16:31.453Z,30.58
2022-11-30T09:18:58.126Z,31.60
2022-11-30T09:21:25.364Z,32.60
2022-11-30T09:23:52.492Z,30.63
2022-11-30T09:26:21.335Z,31.02
2022-11-30T09:28:47.957Z,32.53
2022-11-30T09:31:18.142Z,31.15
2022-11-30T09:33:44.973Z,32.72
2022-11-30T09:36:13.588Z,31.10
2022-11-30T09:38:42.381Z,32.22
2022-11-30T09:41:25.865Z,32.13
2022-11-30T09:44:01.317Z,32.33
2022-11-30T09:46:40.638Z,30.60
2022-11-30T09:49:18.807Z,32.47
2022-11-30T09:51:47.404Z,32.88
2022-11-30T09:54:19.255Z,32.30
2022-11-30T09:56:46.415Z,32.03
2022-11-30T09:59:24.777Z,32.65
2022-11-30T10:01:56.716Z,32.40
2022-11-30T10:04:26.198Z,31.13
2022-11-30T10:07:14.292Z,32.88
2022-11-30T10:10:09.380Z,31.30
2022-11-30T10:12:50.729Z,30.23
2022-11-30T10:15:32.796Z,31.60
2022-11-30T10:18:13.835Z,29.27
2022-11-30T10:20:59.850Z,30.77
2022-11-30T10:23:53.726Z,30.25
2022-11-30T10:26:35.352Z,28.67
2022-11-30T10:29:17.379Z,28.00
2022-11-30T10:31:46.354Z,28.40
2022-11-30T10:34:20.355Z,29.75
2022-11-30T10:37:24.319Z,28.00
2022-11-30T10:39:56.822Z,27.95
2022-11-30T10:42:37.814Z,26.00
2022-11-30T10:45:11.202Z,26.70
2022-11-30T10:50:14.940Z,26.30
2022-11-30T10:52:50.858Z,26.65
2022-11-30T10:55:34.430Z,24.67
2022-11-30T10:58:09.667Z,27.30
2022-11-30T11:00:36.062Z,26.25
2022-11-30T11:03:02.472Z,25.90
2022-11-30T11:05:31.576Z,26.65
2022-11-30T11:08:07.076Z,24.88
2022-11-30T11:10:39.952Z,23.80
2022-11-30T11:13:15.299Z,25.55
2022-11-30T11:15:59.643Z,24.95
2022-11-30T11:18:31.628Z,26.10
2022-11-30T11:21:17.666Z,24.80
2022-11-30T11:23:45.614Z,24.35
2022-11-30T11:26:23.987Z,24.88
2022-11-30T11:28:52.884Z,24.33
2022-11-30T11:31:31.549Z,23.33
2022-11-30T11:33:58.269Z,24.38
2022-11-30T11:36:28.707Z,22.13
2022-11-30T11:38:56.026Z,25.45
2022-11-30T11:41:34.814Z,23.63
2022-11-30T11:44:10.113Z,24.60
2022-11-30T11:47:01.442Z,24.13
2022-11-30T11:49:35.657Z,24.52
2022-11-30T11:52:09.575Z,24.17
2022-11-30T11:54:56.400Z,23.17
2022-11-30T11:57:34.276Z,23.58
2022-11-30T12:00:18.955Z,23.85
2022-11-30T12:02:54.891Z,22.45
2022-11-30T12:05:27.872Z,22.80
2022-11-30T12:08:15.784Z,22.92
2022-11-30T12:10:52.752Z,24.27
2022-11-30T12:13:22.817Z,23.38
2022-11-30T12:16:05.130Z,23.10
2022-11-30T12:19:11.608Z,23.35
2022-11-30T12:21:56.781Z,23.40
2022-11-30T12:25:08.219Z,23.35
2022-11-30T12:27:39.707Z,23.38
2022-11-30T12:30:21.816Z,23.88
2022-11-30T12:33:03.473Z,23.50
2022-11-30T12:36:00.089Z,21.23
2022-11-30T12:38:26.416Z,22.75
2022-11-30T12:41:07.252Z,22.67
2022-11-30T12:43:59.219Z,22.40
2022-11-30T12:46:25.591Z,23.63
2022-11-30T12:49:05.376Z,24.27
2022-11-30T12:51:46.989Z,22.40
2022-11-30T12:54:31.930Z,23.38
2022-11-30T12:57:27.344Z,24.50
2022-11-30T13:00:13.863Z,23.40
2022-11-30T13:02:46.339Z,22.33
2022-11-30T13:05:22.745Z,22.90
2022-11-30T13:07:57.770Z,21.80
2022-11-30T13:10:37.209Z,22.70
2022-11-30T13:13:05.225Z,21.90
2022-11-30T13:15:35.026Z,21.98
2022-11-30T13:18:03.491Z,22.05
2022-11-30T13:21:10.386Z,24.10
2022-11-30T13:24:08.351Z,23.40
2022-11-30T13:26:45.507Z,23.20
2022-11-30T13:29:39.840Z,22.80
2022-11-30T13:32:33.781Z,23.17
2022-11-30T13:35:37.668Z,21.05
2022-11-30T13:38:35.711Z,21.88
2022-11-30T13:41:03.184Z,22.67
2022-11-30T13:43:35.036Z,21.98
2022-11-30T13:46:13.036Z,22.20
2022-11-30T13:48:43.978Z,23.40
2022-11-30T13:51:11.520Z,21.33
2022-11-30T13:53:39.523Z,22.88
2022-11-30T13:56:17.875Z,23.23
2022-11-30T13:59:19.568Z,22.45
2022-11-30T14:01:46.072Z,22.30
2022-11-30T14:04:15.697Z,21.40
2022-11-30T14:06:42.004Z,22.67
2022-11-30T14:09:16.248Z,22.98
2022-11-30T14:11:44.329Z,21.65
2022-11-30T14:14:45.435Z,23.65
2022-11-30T14:17:26.829Z,22.05
2022-11-30T14:19:58.656Z,20.75
2022-11-30T14:22:27.386Z,19.88
2022-11-30T14:24:54.735Z,21.15
2022-11-30T14:27:24.851Z,21.15
2022-11-30T14:29:55.911Z,21.70
2022-11-30T14:32:33.081Z,20.95
2022-11-30T14:35:08.004Z,20.35
2022-11-30T14:37:42.857Z,20.65
2022-11-30T14:40:19.154Z,20.65
2022-11-30T14:42:54.375Z,21.95
2022-11-30T14:45:27.557Z,20.58
2022-11-30T14:48:15.576Z,21.85
2022-11-30T14:51:03.421Z,21.40
2022-11-30T14:53:54.972Z,21.30
2022-11-30T14:56:33.036Z,21.42
2022-11-30T14:59:16.614Z,22.88
2022-11-30T15:01:43.370Z,23.38
2022-11-30T15:04:16.152Z,21.45
2022-11-30T15:06:43.526Z,22.38
2022-11-30T15:09:19.065Z,21.33
2022-11-30T15:11:47.423Z,21.80
2022-11-30T15:14:14.280Z,22.15
2022-11-30T15:16:58.687Z,21.55
2022-11-30T15:19:31.231Z,21.50
2022-11-30T15:21:58.988Z,21.67
2022-11-30T15:24:26.996Z,21.90
2022-11-30T15:26:58.123Z,20.98
2022-11-30T15:29:27.168Z,22.23
2022-11-30T15:31:56.484Z,20.98
2022-11-30T15:34:50.169Z,20.88
2022-11-30T15:37:19.339Z,20.95
2022-11-30T15:39:54.032Z,21.25
2022-11-30T15:42:27.470Z,21.40
2022-11-30T15:47:39.136Z,20.85
2022-11-30T15:50:28.571Z,20.33
2022-11-30T15:53:00.887Z,22.00
2022-11-30T15:55:47.668Z,20.40
2022-11-30T15:58:29.253Z,19.80
2022-11-30T16:01:08.753Z,20.88
2022-11-30T16:04:08.252Z,21.27
2022-11-30T16:06:46.290Z,20.27
2022-11-30T16:09:33.085Z,19.25
2022-11-30T16:12:02.064Z,20.13
2022-11-30T16:14:28.682Z,19.75
2022-11-30T16:16:55.763Z,20.02
2022-11-30T16:19:22.775Z,20.75
2022-11-30T16:21:49.848Z,20.52
2022-11-30T16:24:16.913Z,20.23
2022-11-30T16:26:50.970Z,19.63
2022-11-30T16:29:18.031Z,20.83
2022-11-30T16:31:44.480Z,19.05
2022-11-30T16:34:11.613Z,19.55
2022-11-30T16:36:38.820Z,20.42
2022-11-30T16:39:05.697Z,20.13
2022-11-30T16:41:34.919Z,20.20
2022-11-30T16:44:01.563Z,20.08
2022-11-30T16:46:29.665Z,18.73
2022-11-30T16:48:56.301Z,19.02
2022-11-30T16:51:27.978Z,20.83
2022-11-30T16:53:55.049Z,19.90
2022-11-30T16:56:21.742Z,19.13
2022-11-30T16:58:48.544Z,19.42
2022-11-30T17:01:33.264Z,19.55
2022-11-30T17:04:12.012Z,20.45
2022-11-30T17:06:38.478Z,18.45
2022-11-30T17:09:04.862Z,18.75
2022-11-30T17:11:34.096Z,19.80
2022-11-30T17:14:00.789Z,18.52
2022-11-30T17:16:27.460Z,19.10
2022-11-30T17:18:53.965Z,17.70
2022-11-30T17:21:26.437Z,19.20
2022-11-30T17:23:52.874Z,20.17
2022-11-30T17:26:19.271Z,19.35
2022-11-30T17:28:45.849Z,19.73
2022-11-30T17:31:13.100Z,21.13
2022-11-30T17:33:44.938Z,20.98
2022-11-30T17:36:15.796Z,21.77
2022-11-30T17:38:43.916Z,20.85
2022-11-30T17:41:18.560Z,20.67
2022-11-30T17:43:45.926Z,22.27
2022-11-30T17:46:15.541Z,21.23
2022-11-30T17:48:42.890Z,20.98
2022-11-30T17:51:10.339Z,20.52
2022-11-30T17:53:38.128Z,20.27
2022-11-30T17:56:07.469Z,20.23
2022-11-30T17:58:41.458Z,20.85
2022-11-30T18:01:22.169Z,22.92
2022-11-30T18:03:49.307Z,20.48
2022-11-30T18:06:16.078Z,21.00
2022-11-30T18:08:42.847Z,20.52
2022-11-30T18:11:11.369Z,21.65
2022-11-30T18:13:38.540Z,20.40
2022-11-30T18:16:13.073Z,19.92
2022-11-30T18:18:45.800Z,18.80
2022-11-30T18:21:16.608Z,19.45
2022-11-30T18:23:43.058Z,18.52
2022-11-30T18:26:15.445Z,17.90
2022-11-30T18:28:42.395Z,17.80
2022-11-30T18:31:09.105Z,18.00
2022-11-30T18:33:36.540Z,18.02
2022-11-30T18:36:07.199Z,18.02
2022-11-30T18:38:38.035Z,18.75
2022-11-30T18:41:05.518Z,16.70
2022-11-30T18:43:33.307Z,17.95
2022-11-30T18:46:04.409Z,17.77
2022-11-30T18:48:30.938Z,17.45
2022-11-30T18:50:57.401Z,17.83
2022-11-30T18:53:23.776Z,18.20
2022-11-30T18:55:50.182Z,17.85
2022-11-30T18:58:16.867Z,17.50
2022-11-30T19:00:43.274Z,17.42
2022-11-30T19:03:10.032Z,18.77
2022-11-30T19:05:38.169Z,19.55
2022-11-30T19:08:07.636Z,18.55
2022-11-30T19:10:36.241Z,18.42
2022-11-30T19:13:04.004Z,17.50
2022-11-30T19:15:41.611Z,16.70
2022-11-30T19:18:10.948Z,17.13
2022-11-30T19:20:40.576Z,17.30
2022-11-30T19:23:07.142Z,16.83
2022-11-30T19:25:33.602Z,17.17
2022-11-30T19:28:00.007Z,17.42
2022-11-30T19:30:26.503Z,16.63
2022-11-30T19:32:53.565Z,16.60
2022-11-30T19:35:20.668Z,16.75
2022-11-30T19:37:47.059Z,16.10
2022-11-30T19:40:13.477Z,15.85
2022-11-30T19:42:39.836Z,15.73
2022-11-30T19:45:06.806Z,14.88
2022-11-30T19:47:33.313Z,14.98
2022-11-30T19:49:59.723Z,14.63
2022-11-30T19:52:26.176Z,16.30
2022-11-30T19:54:52.548Z,15.77
2022-11-30T19:57:18.926Z,15.43
2022-11-30T19:59:46.136Z,14.75
2022-11-30T20:02:12.844Z,14.52
2022-11-30T20:04:39.616Z,15.20
2022-11-30T20:07:05.987Z,14.43
2022-11-30T20:09:32.855Z,14.48
2022-11-30T20:11:59.229Z,14.43
2022-11-30T20:14:25.599Z,14.20
2022-11-30T20:16:52.897Z,13.73
2022-11-30T20:19:19.372Z,13.45
2022-11-30T20:21:45.981Z,13.75
2022-11-30T20:24:12.370Z,14.02
2022-11-30T20:26:41.491Z,14.20
2022-11-30T20:29:13.342Z,13.80
2022-11-30T20:31:40.258Z,14.65
2022-11-30T20:34:08.080Z,13.02
2022-11-30T20:36:35.095Z,14.48
2022-11-30T20:39:02.780Z,13.65
2022-11-30T20:41:29.429Z,13.50
2022-11-30T20:43:56.119Z,13.18
2022-11-30T20:46:23.618Z,13.48
2022-11-30T20:48:50.933Z,11.95
2022-11-30T20:51:30.563Z,12.65
2022-11-30T20:53:59.528Z,13.43
2022-11-30T20:56:25.931Z,13.43
2022-11-30T20:58:52.321Z,12.50
2022-11-30T21:01:21.263Z,11.77
2022-11-30T21:03:48.279Z,12.32
2022-11-30T21:06:15.667Z,12.27
2022-11-30T21:08:42.417Z,12.38
2022-11-30T21:11:11.257Z,12.02
2022-11-30T21:13:38.650Z,12.25
2022-11-30T21:16:07.210Z,12.20
2022-11-30T21:18:38.519Z,11.88
2022-11-30T21:21:11.853Z,12.43
2022-11-30T21:23:38.709Z,11.85
2022-11-30T21:26:07.343Z,11.43
2022-11-30T21:28:38.040Z,12.38
2022-11-30T21:31:05.686Z,11.48
2022-11-30T21:33:32.900Z,12.63
2022-11-30T21:35:59.391Z,12.57
2022-11-30T21:38:25.773Z,11.88
2022-11-30T21:41:00.073Z,12.00
2022-11-30T21:43:30.171Z,12.38
2022-11-30T21:45:59.333Z,12.45
2022-11-30T21:48:27.769Z,13.13
2022-11-30T21:51:11.867Z,13.60
2022-11-30T21:53:40.696Z,12.80
2022-11-30T21:56:12.684Z,13.55
2022-11-30T21:58:41.035Z,13.02
2022-11-30T22:01:11.276Z,12.77
2022-11-30T22:03:37.688Z,13.88
2022-11-30T22:06:05.684Z,12.70
2022-11-30T22:08:33.158Z,14.13
2022-11-30T22:11:21.061Z,13.98
2022-11-30T22:13:54.706Z,13.80
2022-11-30T22:16:23.180Z,14.52
2022-11-30T22:18:53.364Z,14.05
2022-11-30T22:21:28.730Z,15.43
2022-11-30T22:24:04.294Z,14.75
2022-11-30T22:26:33.982Z,14.98
2022-11-30T22:29:11.061Z,15.50
2022-11-30T22:31:40.379Z,16.17
2022-11-30T22:34:07.046Z,15.88
2022-11-30T22:36:35.567Z,15.65
2022-11-30T22:39:05.976Z,16.33
2022-11-30T22:41:33.321Z,17.35
2022-11-30T22:43:59.789Z,17.08
2022-11-30T22:46:33.971Z,17.85
2022-11-30T22:49:05.735Z,18.00
2022-11-30T22:51:34.218Z,18.45
2022-11-30T22:54:01.063Z,19.38
2022-11-30T22:56:30.584Z,19.92
2022-11-30T22:59:01.406Z,20.10
2022-11-30T23:01:28.954Z,20.38
2022-11-30T23:03:57.233Z,20.38
2022-11-30T23:06:24.471Z,21.52
2022-11-30T23:08:52.069Z,19.92
2022-11-30T23:11:21.050Z,21.85
2022-11-30T23:13:47.672Z,19.55
2022-11-30T23:16:15.460Z,22.50
2022-11-30T23:18:54.545Z,20.50
2022-11-30T23:21:38.900Z,21.02
2022-11-30T23:24:09.617Z,23.38
2022-11-30T23:26:38.083Z,23.55
2022-11-30T23:29:10.607Z,22.08
2022-11-30T23:31:39.647Z,23.27
2022-11-30T23:34:08.701Z,23.13
2022-11-30T23:36:36.462Z,25.63
2022-11-30T23:39:11.608Z,24.27
2022-11-30T23:41:38.645Z,24.35
2022-11-30T23:44:05.566Z,24.73
2022-11-30T23:46:32.020Z,24.63
2022-11-30T23:48:58.530Z,24.75
2022-11-30T23:51:25.510Z,24.20
2022-11-30T23:53:52.674Z,24.05
2022-11-30T23:56:20.589Z,23.20
2022-11-30T23:58:47.750Z,24.17
